Terminal Aerodrome Forecast
Issued by NWS Twin Cities, MN

Home | Current Version | Previous Version | Text Only | Print | Product List | Glossary On
Versions: 1 2 3 4 5 6 7 8 9 10 11 12 13 14 15 16 17 18 19 20 21 22
463
FTUS43 KMPX 241126
TAFEAU
TAF
KEAU 241126Z 2412/2512 28004KT P6SM OVC015
      TEMPO 2412/2416 4SM BR
     FM241700 07004KT P6SM OVC015
     FM250300 07005KT 1SM -SN OVC008=

USA.gov is the U.S. government's official web portal to all federal, state and local government web resources and services.